createdAt,value
2017-10-19T00:00:58.494Z,98025.49
2017-10-19T00:03:27.498Z,98024.52
2017-10-19T00:05:56.601Z,98027.95
2017-10-19T00:08:24.846Z,98023.28
2017-10-19T00:10:53.097Z,98027.15
2017-10-19T00:13:21.341Z,98023.04
2017-10-19T00:15:49.590Z,98019.37
2017-10-19T00:18:18.706Z,98018.61
2017-10-19T00:20:46.954Z,98030.80
2017-10-19T00:23:15.962Z,98031.27
2017-10-19T00:25:44.973Z,98033.52
2017-10-19T00:28:13.210Z,98029.35
2017-10-19T00:30:41.457Z,98026.20
2017-10-19T00:33:09.706Z,98028.11
2017-10-19T00:35:37.957Z,98031.49
2017-10-19T00:38:06.957Z,98035.53
2017-10-19T00:40:35.209Z,98037.75
2017-10-19T00:43:04.220Z,98031.86
2017-10-19T00:45:32.470Z,98023.70
2017-10-19T00:48:00.709Z,98027.42
2017-10-19T00:50:28.958Z,98016.30
2017-10-19T00:52:57.201Z,98011.99
2017-10-19T00:55:26.223Z,98012.41
2017-10-19T00:57:54.495Z,98012.79
2017-10-19T01:00:22.748Z,98012.05
2017-10-19T01:02:50.997Z,98010.67
2017-10-19T02:19:57.954Z,97989.02
2017-10-19T02:22:26.209Z,97986.08
2017-10-19T02:24:54.448Z,97979.92
2017-10-19T02:27:23.471Z,97986.25
2017-10-19T02:29:51.725Z,97992.25
2017-10-19T02:32:20.006Z,97990.66
2017-10-19T02:34:48.262Z,97988.56
2017-10-19T02:37:17.374Z,97987.57
2017-10-19T02:39:45.618Z,97995.34
2017-10-19T02:42:13.870Z,97993.59
2017-10-19T02:44:42.109Z,97994.91
2017-10-19T02:47:10.363Z,97995.07
2017-10-19T02:49:39.373Z,97996.16
2017-10-19T02:52:07.646Z,97993.38
2017-10-19T02:54:35.892Z,97987.44
2017-10-19T02:57:04.137Z,97992.64
2017-10-19T02:59:32.382Z,97990.47
2017-10-19T03:02:00.637Z,97987.86
2017-10-19T03:04:28.882Z,97988.28
2017-10-19T03:06:57.198Z,97990.67
2017-10-19T03:09:25.442Z,97985.91
2017-10-19T03:11:53.705Z,97984.78
2017-10-19T03:14:21.952Z,97991.83
2017-10-19T03:16:50.203Z,97988.92
2017-10-19T03:19:18.446Z,97993.17
2017-10-19T03:21:47.462Z,97991.47
2017-10-19T03:24:15.709Z,97994.34
2017-10-19T03:26:44.014Z,97995.06
2017-10-19T03:29:12.261Z,97994.70
2017-10-19T03:31:40.566Z,97995.20
2017-10-19T03:34:08.811Z,97991.81
2017-10-19T03:36:37.838Z,97984.34
2017-10-19T03:39:06.088Z,97989.12
2017-10-19T03:41:34.394Z,97989.57
2017-10-19T03:44:02.633Z,97978.24
2017-10-19T03:46:30.937Z,97975.06
2017-10-19T03:48:59.185Z,97979.42
2017-10-19T03:51:27.494Z,97984.75
2017-10-19T03:53:55.738Z,97989.03
2017-10-19T03:56:23.989Z,97986.84
2017-10-19T03:58:52.237Z,97993.98
2017-10-19T04:01:20.600Z,97994.52
2017-10-19T04:03:48.844Z,97996.86
2017-10-19T04:06:17.091Z,97993.14
2017-10-19T04:08:45.332Z,97995.47
2017-10-19T04:11:13.585Z,97988.69
2017-10-19T04:13:42.607Z,97990.83
2017-10-19T04:16:10.866Z,97990.39
2017-10-19T04:18:39.116Z,97992.86
2017-10-19T04:21:07.358Z,97999.62
2017-10-19T04:23:35.606Z,98001.25
2017-10-19T04:26:03.842Z,97997.27
2017-10-19T04:28:32.863Z,97995.35
2017-10-19T04:31:01.111Z,97999.98
2017-10-19T04:33:30.122Z,97997.52
2017-10-19T04:35:59.120Z,97997.88
2017-10-19T04:38:27.378Z,98006.05
2017-10-19T04:40:56.409Z,98003.34
2017-10-19T04:43:24.628Z,97993.88
2017-10-19T04:45:54.377Z,97998.72
2017-10-19T04:48:22.625Z,97997.20
2017-10-19T04:50:51.628Z,97993.39
2017-10-19T04:53:20.650Z,97991.28
2017-10-19T04:55:48.907Z,97987.97
2017-10-19T04:58:17.153Z,97987.22
2017-10-19T05:00:45.399Z,97983.91
2017-10-19T05:03:13.651Z,97991.61
2017-10-19T05:05:41.907Z,97990.30
2017-10-19T05:08:10.155Z,97991.30
2017-10-19T05:10:38.405Z,97989.75
2017-10-19T05:13:06.655Z,97985.97
2017-10-19T05:15:34.894Z,97988.86
2017-10-19T05:18:04.004Z,97985.59
2017-10-19T05:20:32.284Z,97987.80
2017-10-19T05:23:00.531Z,97987.04
2017-10-19T05:25:28.774Z,97989.13
2017-10-19T05:27:57.122Z,97985.47
2017-10-19T05:30:25.365Z,97987.17
2017-10-19T05:32:54.385Z,97981.73
2017-10-19T05:35:22.627Z,97984.27
2017-10-19T05:37:50.881Z,97986.75
2017-10-19T05:40:19.116Z,97986.19
2017-10-19T05:42:47.374Z,97982.02
2017-10-19T05:45:16.380Z,97982.31
2017-10-19T05:47:44.650Z,97981.16
2017-10-19T05:50:12.929Z,97983.18
2017-10-19T05:52:41.189Z,97989.55
2017-10-19T05:55:10.199Z,97996.80
2017-10-19T05:57:38.455Z,98001.80
2017-10-19T06:00:07.462Z,98000.19
2017-10-19T06:02:35.734Z,97995.47
2017-10-19T06:05:03.981Z,97995.95
2017-10-19T06:07:32.239Z,97995.55
2017-10-19T06:10:00.486Z,97998.02
2017-10-19T06:12:28.738Z,98004.09
2017-10-19T06:14:56.989Z,98005.34
2017-10-19T06:17:34.015Z,98003.65
2017-10-19T06:20:02.269Z,98001.68
2017-10-19T06:22:30.528Z,98001.38
2017-10-19T06:24:59.537Z,98001.02
2017-10-19T06:27:27.794Z,98002.66
2017-10-19T06:29:56.090Z,98008.78
2017-10-19T06:32:24.363Z,98011.37
2017-10-19T06:34:52.611Z,98022.39
2017-10-19T06:37:20.860Z,98024.91
2017-10-19T06:39:49.106Z,98022.50
2017-10-19T06:42:17.369Z,98028.88
2017-10-19T06:44:45.618Z,98027.23
2017-10-19T06:47:13.866Z,98022.98
2017-10-19T06:49:42.116Z,98026.80
2017-10-19T06:52:10.368Z,98024.02
2017-10-19T06:54:38.641Z,98024.56
2017-10-19T06:57:06.918Z,98022.87
2017-10-19T06:59:35.169Z,98027.95
2017-10-19T07:02:04.194Z,98028.80
2017-10-19T07:04:32.438Z,98025.66
2017-10-19T07:07:01.468Z,98018.20
2017-10-19T07:09:29.706Z,98023.72
2017-10-19T07:11:57.961Z,98025.36
2017-10-19T07:14:26.209Z,98032.80
2017-10-19T07:16:54.480Z,98031.28
2017-10-19T07:19:22.737Z,98026.31
2017-10-19T07:21:50.982Z,98028.70
2017-10-19T07:24:20.008Z,98026.07
2017-10-19T07:26:48.242Z,98016.73
2017-10-19T07:29:16.559Z,98014.61
2017-10-19T07:31:44.806Z,98021.91
2017-10-19T07:34:13.813Z,98047.37
2017-10-19T07:36:42.061Z,98071.02
2017-10-19T07:39:10.311Z,98069.53
2017-10-19T07:41:38.550Z,98063.72
2017-10-19T07:44:06.804Z,98063.34
2017-10-19T07:46:35.806Z,98047.59
2017-10-19T07:49:04.824Z,98053.16
2017-10-19T07:51:33.080Z,98054.50
2017-10-19T07:54:01.335Z,98050.48
2017-10-19T07:56:30.337Z,98047.86
2017-10-19T07:58:59.451Z,98060.68
2017-10-19T08:01:27.719Z,98057.44
2017-10-19T08:03:56.003Z,98055.38
2017-10-19T08:06:24.250Z,98050.45
2017-10-19T08:08:53.376Z,98054.73
2017-10-19T08:11:21.626Z,98052.25
2017-10-19T08:13:50.631Z,98049.89
2017-10-19T08:16:18.877Z,98059.13
2017-10-19T08:18:47.128Z,98057.43
2017-10-19T08:21:15.365Z,98058.31
2017-10-19T08:23:43.609Z,98064.08
2017-10-19T08:26:12.621Z,98071.09
2017-10-19T08:28:41.643Z,98084.83
2017-10-19T08:31:09.881Z,98085.22
2017-10-19T08:33:38.898Z,98086.36
2017-10-19T08:36:07.138Z,98089.03
2017-10-19T08:38:35.388Z,98074.69
2017-10-19T08:41:03.631Z,98080.33
2017-10-19T08:43:31.878Z,98068.05
2017-10-19T08:46:00.120Z,98066.66
2017-10-19T08:48:28.370Z,98059.56
2017-10-19T08:50:56.613Z,98072.39
2017-10-19T08:53:25.640Z,98077.83
2017-10-19T08:55:53.887Z,98076.27
2017-10-19T08:58:22.132Z,98082.65
2017-10-19T09:00:51.148Z,98082.45
2017-10-19T09:03:19.399Z,98088.07
2017-10-19T09:05:48.413Z,98088.58
2017-10-19T09:08:16.673Z,98085.58
2017-10-19T09:10:45.687Z,98083.11
2017-10-19T09:13:13.953Z,98073.19
2017-10-19T09:15:42.968Z,98072.41
2017-10-19T09:18:11.331Z,98065.96
2017-10-19T09:20:39.581Z,98075.36
2017-10-19T09:23:08.612Z,98068.09
2017-10-19T09:25:36.862Z,98071.21
2017-10-19T09:28:05.975Z,98074.63
2017-10-19T09:30:34.222Z,98078.47
2017-10-19T09:33:03.252Z,98074.21
2017-10-19T09:35:31.513Z,98068.66
2017-10-19T09:37:59.771Z,98067.39
2017-10-19T09:40:28.890Z,98063.13
2017-10-19T09:42:57.146Z,98069.11
2017-10-19T09:45:26.168Z,98068.66
2017-10-19T09:47:54.418Z,98066.95
2017-10-19T09:50:23.437Z,98065.66
2017-10-19T09:52:51.693Z,98059.70
2017-10-19T09:55:19.946Z,98067.36
2017-10-19T09:57:48.970Z,98069.52
2017-10-19T10:00:17.222Z,98064.36
2017-10-19T10:02:46.228Z,98067.34
2017-10-19T10:05:14.483Z,98070.31
2017-10-19T10:07:42.737Z,98083.89
2017-10-19T10:10:10.989Z,98088.16
2017-10-19T10:12:39.233Z,98101.45
2017-10-19T10:15:07.486Z,98107.87
2017-10-19T10:17:36.505Z,98092.95
2017-10-19T10:20:04.765Z,98104.03
2017-10-19T10:22:33.782Z,98099.79
2017-10-19T10:25:02.047Z,98092.36
2017-10-19T10:27:30.289Z,98089.63
2017-10-19T10:29:59.310Z,98090.13
2017-10-19T10:32:28.317Z,98084.94
2017-10-19T10:34:56.579Z,98084.69
2017-10-19T10:37:25.595Z,98083.28
2017-10-19T10:39:53.854Z,98080.34
2017-10-19T10:42:22.102Z,98080.67
2017-10-19T10:44:50.358Z,98072.31
2017-10-19T10:47:18.607Z,98073.73
2017-10-19T10:49:46.859Z,98066.09
2017-10-19T10:52:15.102Z,98062.52
2017-10-19T10:54:43.356Z,98065.19
2017-10-19T10:57:11.599Z,98059.78
2017-10-19T10:59:39.852Z,98059.20
2017-10-19T11:02:08.857Z,98058.14
2017-10-19T11:04:37.125Z,98052.02
2017-10-19T11:07:05.372Z,98050.35
2017-10-19T11:09:33.630Z,98051.10
2017-10-19T11:12:01.887Z,98046.70
2017-10-19T11:14:30.230Z,98032.02
2017-10-19T11:16:58.475Z,98028.22
2017-10-19T11:19:26.721Z,98021.80
2017-10-19T11:21:54.972Z,98016.53
2017-10-19T11:24:23.218Z,98021.92
2017-10-19T11:26:52.237Z,98027.53
2017-10-19T11:29:20.477Z,98021.55
2017-10-19T11:31:49.486Z,98009.42
2017-10-19T11:34:17.753Z,98008.34
2017-10-19T11:36:46.859Z,98004.15
2017-10-19T11:39:15.110Z,98008.08
2017-10-19T11:41:44.126Z,98003.92
2017-10-19T11:44:12.415Z,98010.34
2017-10-19T11:46:40.662Z,97998.67
2017-10-19T11:49:09.689Z,97994.06
2017-10-19T11:51:37.932Z,97986.94
2017-10-19T11:54:06.942Z,97983.23
2017-10-19T11:56:35.190Z,97987.73
2017-10-19T11:59:03.444Z,97983.59
2017-10-19T12:01:32.454Z,97980.34
2017-10-19T12:04:00.707Z,97985.45
2017-10-19T12:06:28.954Z,97992.41
2017-10-19T12:08:57.213Z,97994.73
2017-10-19T12:11:25.454Z,97987.45
2017-10-19T12:13:54.278Z,97994.91
2017-10-19T12:16:22.531Z,97994.91
2017-10-19T12:18:51.546Z,97985.67
2017-10-19T12:21:19.792Z,97978.65
2017-10-19T12:23:48.813Z,97981.19
2017-10-19T12:26:17.054Z,97960.45
2017-10-19T12:28:45.302Z,97964.20
2017-10-19T12:31:13.550Z,97965.22
2017-10-19T12:33:41.802Z,97959.08
2017-10-19T12:36:10.826Z,97962.61
2017-10-19T12:38:39.078Z,97963.80
2017-10-19T12:41:07.321Z,97959.05
2017-10-19T12:43:35.578Z,97968.84
2017-10-19T12:46:03.819Z,97959.70
2017-10-19T12:48:32.074Z,97954.81
2017-10-19T12:51:01.082Z,97949.59
2017-10-19T12:53:29.355Z,97944.80
2017-10-19T12:55:57.609Z,97947.80
2017-10-19T12:58:26.618Z,97941.52
2017-10-19T13:00:54.873Z,97942.91
2017-10-19T13:03:23.887Z,97943.23
2017-10-19T13:05:52.140Z,97941.52
2017-10-19T13:08:21.157Z,97934.83
2017-10-19T13:10:49.409Z,97931.77
2017-10-19T13:13:18.426Z,97921.63
2017-10-19T13:15:46.674Z,97926.30
2017-10-19T13:18:15.686Z,97918.66
2017-10-19T13:20:44.706Z,97921.03
2017-10-19T13:23:12.953Z,97923.52
2017-10-19T13:25:41.974Z,97916.72
2017-10-19T13:28:10.221Z,97914.21
2017-10-19T13:30:39.237Z,97913.88
2017-10-19T13:33:07.483Z,97909.94
2017-10-19T13:35:36.503Z,97905.80
2017-10-19T13:38:04.754Z,97898.78
2017-10-19T13:40:33.765Z,97892.91
2017-10-19T13:43:02.019Z,97895.00
2017-10-19T13:45:31.043Z,97889.06
2017-10-19T13:47:59.286Z,97891.36
2017-10-19T13:50:28.305Z,97892.78
2017-10-19T13:52:56.550Z,97898.64
2017-10-19T13:55:25.710Z,97895.66
2017-10-19T13:57:53.963Z,97883.42
2017-10-19T14:00:22.236Z,97881.80
2017-10-19T14:02:50.482Z,97882.99
2017-10-19T14:05:19.500Z,97878.37
2017-10-19T14:07:47.749Z,97875.89
2017-10-19T14:10:16.771Z,97873.12
2017-10-19T14:12:45.014Z,97870.20
2017-10-19T14:15:14.030Z,97879.34
2017-10-19T14:17:42.273Z,97876.35
2017-10-19T14:20:11.313Z,97871.92
2017-10-19T14:22:39.554Z,97865.69
2017-10-19T14:25:08.567Z,97864.42
2017-10-19T14:27:36.826Z,97868.30
2017-10-19T14:30:05.849Z,97860.30
2017-10-19T14:32:34.097Z,97866.09
2017-10-19T14:35:02.355Z,97861.29
2017-10-19T14:37:30.602Z,97859.23
2017-10-19T14:39:58.846Z,97857.63
2017-10-19T14:42:27.111Z,97860.47
2017-10-19T14:44:55.349Z,97858.33
2017-10-19T14:47:23.609Z,97861.77
2017-10-19T14:49:51.857Z,97860.30
2017-10-19T14:52:20.315Z,97862.33
2017-10-19T14:54:48.558Z,97853.44
2017-10-19T14:57:16.800Z,97864.41
2017-10-19T14:59:45.054Z,97852.12
2017-10-19T15:02:13.302Z,97856.95
2017-10-19T15:04:42.332Z,97867.80
2017-10-19T15:07:10.575Z,97862.05
2017-10-19T15:09:39.597Z,97862.19
2017-10-19T15:12:07.846Z,97858.42
2017-10-19T15:14:36.231Z,97850.67
2017-10-19T15:17:04.483Z,97847.95
2017-10-19T15:19:33.503Z,97848.92
2017-10-19T15:22:01.757Z,97849.80
2017-10-19T15:24:30.781Z,97853.77
2017-10-19T15:26:59.027Z,97861.56
2017-10-19T15:29:28.061Z,97856.77
2017-10-19T15:31:56.315Z,97855.17
2017-10-19T15:34:24.573Z,97850.84
2017-10-19T15:36:53.582Z,97855.11
2017-10-19T15:39:22.061Z,97852.94
2017-10-19T15:41:50.311Z,97854.11
2017-10-19T15:44:19.320Z,97857.75
2017-10-19T15:46:47.579Z,97865.55
2017-10-19T15:49:16.590Z,97865.52
2017-10-19T15:51:44.845Z,97868.95
2017-10-19T15:54:13.094Z,97867.34
2017-10-19T15:56:41.357Z,97868.05
2017-10-19T15:59:09.606Z,97862.36
2017-10-19T16:01:37.859Z,97864.84
2017-10-19T16:04:06.879Z,97865.77
2017-10-19T16:06:35.128Z,97863.30
2017-10-19T16:09:04.142Z,97874.25
2017-10-19T16:11:32.401Z,97872.19
2017-10-19T16:14:00.645Z,97869.02
2017-10-19T16:16:29.669Z,97870.31
2017-10-19T16:18:58.682Z,97870.44
2017-10-19T16:21:26.928Z,97876.54
2017-10-19T16:23:55.951Z,97884.16
2017-10-19T16:26:24.203Z,97878.04
2017-10-19T16:28:53.224Z,97883.42
2017-10-19T16:31:21.474Z,97880.17
2017-10-19T16:33:50.588Z,97879.08
2017-10-19T16:36:18.826Z,97878.95
2017-10-19T16:38:47.853Z,97877.45
2017-10-19T16:41:16.092Z,97882.41
2017-10-19T16:43:44.350Z,97883.83
2017-10-19T16:46:12.597Z,97884.77
2017-10-19T16:48:40.863Z,97887.42
2017-10-19T16:51:09.118Z,97882.48
2017-10-19T16:53:37.372Z,97885.30
2017-10-19T16:56:06.394Z,97882.42
2017-10-19T16:58:34.645Z,97884.44
2017-10-19T17:01:03.667Z,97879.44
2017-10-19T17:03:31.914Z,97883.33
2017-10-19T17:06:00.939Z,97888.20
2017-10-19T17:08:29.182Z,97892.12
2017-10-19T17:10:58.210Z,97897.81
2017-10-19T17:13:26.462Z,97894.93
2017-10-19T17:15:54.765Z,97896.38
2017-10-19T17:18:23.002Z,97893.50
2017-10-19T17:20:52.025Z,97899.58
2017-10-19T17:23:20.274Z,97892.86
2017-10-19T17:25:49.299Z,97899.36
2017-10-19T17:28:17.547Z,97895.06
2017-10-19T17:30:46.567Z,97895.01
2017-10-19T17:33:14.822Z,97896.28
2017-10-19T17:35:43.086Z,97888.71
2017-10-19T17:38:12.114Z,97895.55
2017-10-19T17:40:40.579Z,97894.31
2017-10-19T17:43:08.829Z,97893.43
2017-10-19T17:45:37.848Z,97884.59
2017-10-19T17:48:06.093Z,97891.04
2017-10-19T17:50:34.354Z,97889.86
2017-10-19T17:53:02.619Z,97891.97
2017-10-19T17:55:30.868Z,97890.73
2017-10-19T17:57:59.890Z,97887.81
2017-10-19T18:00:28.134Z,97887.09
2017-10-19T18:02:57.246Z,97884.58
2017-10-19T18:05:25.494Z,97890.20
2017-10-19T18:07:54.518Z,97893.30
2017-10-19T18:10:22.767Z,97896.40
2017-10-19T18:12:51.789Z,97891.75
2017-10-19T18:15:20.047Z,97888.37
2017-10-19T18:17:49.072Z,97888.22
2017-10-19T18:20:17.318Z,97886.86
2017-10-19T18:22:45.809Z,97889.56
2017-10-19T18:25:14.057Z,97893.94
2017-10-19T18:27:43.079Z,97888.03
2017-10-19T18:30:11.337Z,97894.06
2017-10-19T18:32:40.347Z,97894.12
2017-10-19T18:35:08.605Z,97889.06
2017-10-19T18:37:37.628Z,97895.48
2017-10-19T18:40:05.883Z,97888.72
2017-10-19T18:42:34.901Z,97884.84
2017-10-19T18:45:03.163Z,97880.99
2017-10-19T18:47:31.407Z,97884.45
2017-10-19T18:49:59.663Z,97877.62
2017-10-19T18:52:27.911Z,97878.53
2017-10-19T18:54:56.166Z,97878.08
2017-10-19T18:57:24.425Z,97878.94
2017-10-19T18:59:53.433Z,97870.72
2017-10-19T19:02:21.704Z,97871.56
2017-10-19T19:04:49.957Z,97875.67
2017-10-19T19:07:18.970Z,97876.52
2017-10-19T19:09:47.235Z,97876.39
2017-10-19T19:12:16.255Z,97873.78
2017-10-19T19:14:44.515Z,97883.45
2017-10-19T19:17:12.769Z,97884.41
2017-10-19T19:19:41.785Z,97884.32
2017-10-19T19:22:10.041Z,97884.58
2017-10-19T19:24:39.257Z,97884.13
2017-10-19T19:27:07.519Z,97889.22
2017-10-19T19:29:36.530Z,97885.69
2017-10-19T19:32:04.796Z,97888.17
2017-10-19T19:34:33.802Z,97889.98
2017-10-19T19:37:02.059Z,97888.30
2017-10-19T19:39:31.084Z,97888.98
2017-10-19T19:41:59.339Z,97892.30
2017-10-19T19:44:27.589Z,97896.42
2017-10-19T19:46:56.617Z,97895.64
2017-10-19T19:49:24.871Z,97899.98
2017-10-19T19:51:53.897Z,97899.20
2017-10-19T19:54:22.146Z,97897.97
2017-10-19T19:56:50.410Z,97895.34
2017-10-19T19:59:19.423Z,97891.48
2017-10-19T20:01:47.678Z,97893.20
2017-10-19T20:04:16.701Z,97885.57
2017-10-19T20:06:44.966Z,97884.33
2017-10-19T20:09:13.218Z,97885.17
2017-10-19T20:11:42.243Z,97888.17
2017-10-19T20:14:10.495Z,97894.64
2017-10-19T20:16:39.518Z,97894.24
2017-10-19T20:19:07.770Z,97899.45
2017-10-19T20:21:36.031Z,97896.42
2017-10-19T20:24:05.043Z,97893.03
2017-10-19T20:26:33.533Z,97888.78
2017-10-19T20:29:01.777Z,97897.33
2017-10-19T20:31:30.790Z,97894.80
2017-10-19T20:33:59.047Z,97897.03
2017-10-19T20:36:28.068Z,97893.59
2017-10-19T20:38:56.343Z,97899.59
2017-10-19T20:41:24.616Z,97895.80
2017-10-19T20:43:53.244Z,97891.98
2017-10-19T20:46:21.495Z,97888.62
2017-10-19T20:48:50.075Z,97891.29
2017-10-19T20:51:19.033Z,97893.84
2017-10-19T20:53:47.528Z,97896.78
2017-10-19T20:58:50.457Z,97890.40
2017-10-19T21:01:18.756Z,97894.24
2017-10-19T21:03:47.006Z,97888.28
2017-10-19T21:06:15.258Z,97889.57
2017-10-19T21:08:43.506Z,97886.58
2017-10-19T21:11:12.629Z,97893.39
2017-10-19T21:13:40.914Z,97888.75
2017-10-19T21:16:09.158Z,97889.95
2017-10-19T21:18:38.174Z,97890.28
2017-10-19T21:21:06.434Z,97884.41
2017-10-19T21:23:35.541Z,97879.72
2017-10-19T21:26:03.802Z,97874.64
2017-10-19T21:28:32.827Z,97875.57
2017-10-19T21:31:01.085Z,97874.33
2017-10-19T21:33:29.341Z,97872.70
2017-10-19T21:35:58.356Z,97864.59
2017-10-19T21:38:26.610Z,97855.61
2017-10-19T21:40:55.635Z,97864.06
2017-10-19T21:43:23.882Z,97862.36
2017-10-19T21:45:52.902Z,97864.07
2017-10-19T21:48:21.207Z,97870.02
2017-10-19T21:50:49.461Z,97864.03
2017-10-19T21:53:17.771Z,97871.25
2017-10-19T21:55:46.790Z,97871.69
2017-10-19T21:58:15.814Z,97870.83
2017-10-19T22:00:44.071Z,97873.80
2017-10-19T22:03:13.090Z,97871.25
2017-10-19T22:05:41.357Z,97869.14
2017-10-19T22:08:09.608Z,97875.14
2017-10-19T22:10:38.621Z,97872.63
2017-10-19T22:13:06.886Z,97865.00
2017-10-19T22:15:35.897Z,97875.29
2017-10-19T22:18:04.153Z,97875.31
2017-10-19T22:20:33.289Z,97877.92
2017-10-19T22:29:02.597Z,97867.63
2017-10-19T22:31:30.859Z,97862.98
2017-10-19T22:33:59.883Z,97857.91
2017-10-19T22:36:28.143Z,97854.16
2017-10-19T22:38:56.402Z,97857.90
2017-10-19T22:41:25.514Z,97863.48
2017-10-19T22:43:54.388Z,97864.32
2017-10-19T22:46:23.403Z,97862.67
2017-10-19T22:48:51.662Z,97868.22
2017-10-19T22:51:20.678Z,97871.64
2017-10-19T22:53:48.936Z,97864.80
2017-10-19T22:56:17.188Z,97869.89
2017-10-19T22:58:46.210Z,97873.23
2017-10-19T23:01:14.462Z,97861.73
2017-10-19T23:03:43.482Z,97859.61
2017-10-19T23:06:11.732Z,97865.09
2017-10-19T23:08:40.773Z,97868.94
2017-10-19T23:11:09.029Z,97865.49
2017-10-19T23:13:37.286Z,97865.07
2017-10-19T23:16:06.307Z,97858.22
2017-10-19T23:18:34.560Z,97861.66
2017-10-19T23:21:03.582Z,97859.63
2017-10-19T23:23:31.837Z,97863.05
2017-10-19T23:26:00.089Z,97855.81
2017-10-19T23:28:29.106Z,97865.62
2017-10-19T23:30:57.365Z,97859.16
2017-10-19T23:33:26.386Z,97864.75
2017-10-19T23:35:54.646Z,97869.90
2017-10-19T23:38:22.903Z,97875.81
2017-10-19T23:40:51.921Z,97881.38
2017-10-19T23:43:20.171Z,97882.22
2017-10-19T23:45:49.193Z,97877.98
2017-10-19T23:48:17.445Z,97877.56
2017-10-19T23:50:46.474Z,97884.33
2017-10-19T23:53:14.722Z,97883.13
2017-10-19T23:55:43.106Z,97894.62
2017-10-19T23:58:11.354Z,97907.46
